Погода Каварнана неделю

Варна, Болгария

18 - 24 июля
  • 18июля
    Сегодня
    +24°
    +38°
    Небольшая облачность
    ВремяПогодаТемператураВлажностьДавлениеВетер, м/сВероятность осадков
    00:00Ясно и безоблачно+26°C63 %748 мм2.6 м/с2 %
    03:00Ясно и безоблачно+25°C61 %748 мм2.9 м/с2 %
    06:00Ясно и безоблачно+25°C56 %748 мм3.5 м/с2 %
    09:00Ясно и безоблачно+32°C48 %749 мм6.0 м/с2 %
    12:00Ясно и безоблачно+37°C36 %749 мм6.1 м/с2 %
    15:00Небольшая облачность+36°C33 %749 мм5.8 м/с3 %
    18:00Практически безоблачно+36°C32 %748 мм4.0 м/с5 %
    21:00Практически безоблачно+30°C45 %749 мм2.9 м/с2 %
  • 19июля
    Пятница
    +23°
    +35°
    Небольшая облачность
    ВремяПогодаТемператураВлажностьДавлениеВетер, м/сВероятность осадков
    00:00Ясно и безоблачно+28°C56 %749 мм3.1 м/с2 %
    03:00Ясно и безоблачно+26°C59 %748 мм4.1 м/с2 %
    06:00Ясно и безоблачно+25°C64 %748 мм5.5 м/с2 %
    09:00Ясно и безоблачно+30°C55 %749 мм6.5 м/с2 %
    12:00Небольшая облачность+34°C48 %748 мм5.6 м/с2 %
    15:00Небольшая облачность+33°C49 %748 мм5.8 м/с10 %
    18:00Небольшая облачность, возможен дождь с грозой+32°C52 %747 мм4.6 м/с11 %
    21:00Ясно и безоблачно+28°C63 %747 мм1.9 м/с2 %
  • 20июля
    Суббота
    +20°
    +33°
    Практически безоблачно
    ВремяПогодаТемператураВлажностьДавлениеВетер, м/сВероятность осадков
    00:00Ясно и безоблачно+26°C69 %747 мм1.5 м/с2 %
    03:00Ясно и безоблачно+24°C69 %746 мм3.5 м/с2 %
    06:00Ясно и безоблачно+23°C53 %746 мм4.2 м/с2 %
    09:00Ясно и безоблачно+29°C40 %746 мм5.2 м/с2 %
    12:00Ясно и безоблачно+32°C38 %746 мм5.0 м/с3 %
    15:00Практически безоблачно+31°C50 %746 мм6.3 м/с13 %
    18:00Ясно и безоблачно+30°C54 %745 мм4.9 м/с20 %
    21:00Ясно и безоблачно+26°C69 %746 мм2.6 м/с2 %
  • 21июля
    Воскресенье
    +20°
    +34°
    Ясно и безоблачно
    ВремяПогодаТемператураВлажностьДавлениеВетер, м/сВероятность осадков
    00:00Ясно и безоблачно+24°C79 %745 мм0.9 м/с2 %
    03:00Ясно и безоблачно+22°C88 %745 мм1.2 м/с2 %
    06:00Ясно и безоблачно+21°C81 %744 мм0.9 м/с2 %
    09:00Ясно и безоблачно+29°C38 %745 мм1.6 м/с2 %
    12:00Ясно и безоблачно+33°C40 %745 мм2.8 м/с2 %
    15:00Ясно и безоблачно+33°C42 %744 мм4.1 м/с9 %
    18:00Практически безоблачно+31°C48 %744 мм3.3 м/с6 %
    21:00Ясно и безоблачно+27°C59 %744 мм1.7 м/с2 %
  • 22июля
    Понедельник
    +22°
    +33°
    Небольшая облачность
    ВремяПогодаТемператураВлажностьДавлениеВетер, м/сВероятность осадков
    00:00Ясно и безоблачно+24°C69 %744 мм1.6 м/с2 %
    03:00Ясно и безоблачно+23°C71 %743 мм1.7 м/с2 %
    06:00Ясно и безоблачно+20°C69 %743 мм1.5 м/с2 %
    09:00Ясно и безоблачно+28°C47 %744 мм1.4 м/с2 %
    12:00Практически безоблачно+33°C44 %744 мм3.6 м/с17 %
    15:00Небольшая облачность+32°C51 %743 мм3.2 м/с47 %
    18:00Небольшая облачность, возможен дождь с грозой+29°C54 %743 мм3.7 м/с43 %
    21:00Облачно с прояснениями+27°C61 %744 мм2.0 м/с13 %
Мы используем cookies
Соглашаюсь